Nasudden, Sweden

4:25 AM CEST on August 29, 2016 (GMT +0200)
Valarvägen | | Change Station

Elev 9 ft 57.03 °N, 18.26 °E | Updated 4 minutes ago

Rain
Rain
61.5 °F
Feels Like 61.5 °F
N
1.9
Wind Variable Wind from ESE
Gusts 5.0 mph

Today
High -- | Low -- °F
--% Chance of Precip.
Yesterday
High -- | Low -- °F
Precip. -- in
Pressure 29.74 in
Visibility 6.2 miles
Clouds Few 8400 ft
Dew Point 61 °F
Humidity 98%
Rainfall 0.08 in
Snow Depth Not available.
5:43 AM 7:50 PM
Waning Crescent, 11% visible
METAR ESSV 290220Z AUTO 09008KT 9999 FEW084/// 16/15 Q1007 RESHUP
Pressure 29.74 in
Visibility 6.2 miles
Clouds Few 8400 ft
Dew Point 61 °F
Humidity 98%
Rainfall 0.08 in
Snow Depth Not available.
5:43 AM 7:50 PM
Waning Crescent, 11% visible
METAR ESSV 290220Z AUTO 09008KT 9999 FEW084/// 16/15 Q1007 RESHUP

10-Day Weather Forecast

×

Almanac

Astronomy

Aug. 29, 2016 Rise Set
Actual Time
Civil Twilight
Nautical Twilight
Astronomical Twilight
Moon
Length of Visible Light
Length of Day
Tomorrow will be .
, % of the Moon is Illuminated

Today's Extremes

Country Highs Country Lows

Community

WunderPhotos

Upload Photos

1,935,773 photos uploaded!

WunderBlog® & News

Nearby

Air Quality

  Air Quality AQ Index Pollutant
Not available.

Snow Depth

Station Depth Elevation

Earthquake Activity

City Distance Mag. Time & Date
Minimum magnitude displayed is 2.5.

Coastal Water Temperatures

Place Temperature

Stations

Nearby Weather Stations

Station Location Temp. Windchill Dew Point Humidity Wind Precip. Elev Updated Type